createdAt,value
2022-11-29T00:02:13.064Z,99588.97
2022-11-29T00:05:01.113Z,99598.31
2022-11-29T00:07:49.408Z,99596.34
2022-11-29T00:10:37.915Z,99594.44
2022-11-29T00:13:25.880Z,99594.44
2022-11-29T00:16:14.700Z,99583.91
2022-11-29T00:19:04.473Z,99584.69
2022-11-29T00:21:52.472Z,99590.66
2022-11-29T00:24:42.232Z,99586.06
2022-11-29T00:27:30.652Z,99594.59
2022-11-29T00:30:18.809Z,99593.84
2022-11-29T00:33:06.900Z,99591.44
2022-11-29T00:35:56.467Z,99583.97
2022-11-29T00:38:45.015Z,99589.47
2022-11-29T00:41:33.049Z,99581.66
2022-11-29T00:44:21.193Z,99582.44
2022-11-29T00:47:09.289Z,99592.19
2022-11-29T00:49:57.320Z,99589.81
2022-11-29T00:52:46.679Z,99585.44
2022-11-29T00:55:34.692Z,99589.81
2022-11-29T00:58:23.081Z,99596.84
2022-11-29T01:01:11.905Z,99593.25
2022-11-29T01:04:01.428Z,99590.44
2022-11-29T01:06:51.762Z,99595.50
2022-11-29T01:09:41.325Z,99594.72
2022-11-29T01:12:29.574Z,99604.91
2022-11-29T01:15:17.718Z,99604.56
2022-11-29T01:18:05.748Z,99599.44
2022-11-29T01:20:58.130Z,99602.25
2022-11-29T01:23:47.174Z,99514.88
2022-11-29T01:26:36.546Z,99601.81
2022-11-29T01:29:24.615Z,99612.81
2022-11-29T01:32:13.314Z,99608.84
2022-11-29T01:35:01.372Z,99605.34
2022-11-29T01:37:49.376Z,99609.25
2022-11-29T01:40:37.538Z,99612.34
2022-11-29T01:43:27.091Z,99608.84
2022-11-29T01:46:15.109Z,99608.91
2022-11-29T01:49:07.240Z,99617.13
2022-11-29T01:51:59.804Z,99604.28
2022-11-29T01:54:49.687Z,99611.34
2022-11-29T01:57:41.302Z,99612.09
2022-11-29T02:00:30.787Z,99617.88
2022-11-29T02:03:19.532Z,99529.50
2022-11-29T02:06:08.740Z,99613.25
2022-11-29T02:08:56.910Z,99614.81
2022-11-29T02:12:05.125Z,99606.50
2022-11-29T02:15:19.679Z,99616.28
2022-11-29T02:18:14.593Z,99612.66
2022-11-29T02:21:21.461Z,99617.06
2022-11-29T02:24:38.036Z,99623.78
2022-11-29T02:27:59.515Z,99614.28
2022-11-29T02:31:35.177Z,99616.72
2022-11-29T02:34:54.900Z,99620.63
2022-11-29T02:38:00.199Z,99621.31
2022-11-29T02:41:06.024Z,99617.03
2022-11-29T02:44:12.380Z,99620.56
2022-11-29T02:47:13.546Z,99611.41
2022-11-29T02:50:18.470Z,99623.22
2022-11-29T02:53:14.224Z,99626.38
2022-11-29T02:56:14.557Z,99617.47
2022-11-29T02:59:10.416Z,99626.44
2022-11-29T03:02:05.805Z,99624.56
2022-11-29T03:05:02.506Z,99623.72
2022-11-29T03:07:59.642Z,99628.88
2022-11-29T03:11:00.413Z,99628.84
2022-11-29T03:13:57.143Z,99633.50
2022-11-29T03:16:52.337Z,99637.47
2022-11-29T03:20:00.784Z,99637.91
2022-11-29T03:23:03.204Z,99646.47
2022-11-29T03:25:56.519Z,99651.59
2022-11-29T03:28:50.762Z,99646.91
2022-11-29T03:31:45.931Z,99648.09
2022-11-29T03:34:51.740Z,99641.06
2022-11-29T03:37:49.582Z,99649.22
2022-11-29T03:40:48.617Z,99651.59
2022-11-29T03:43:44.208Z,99648.03
2022-11-29T03:46:38.918Z,99645.63
2022-11-29T03:49:34.054Z,99663.69
2022-11-29T03:52:27.722Z,99655.91
2022-11-29T03:55:32.549Z,99661.38
2022-11-29T03:58:37.403Z,99657.09
2022-11-29T04:02:21.140Z,99657.50
2022-11-29T04:05:32.388Z,99650.34
2022-11-29T04:09:00.916Z,99652.22
2022-11-29T04:12:07.128Z,99574.03
2022-11-29T04:15:46.073Z,99657.00
2022-11-29T04:19:05.471Z,99642.97
2022-11-29T04:22:20.149Z,99651.19
2022-11-29T04:25:35.760Z,99655.03
2022-11-29T04:28:59.327Z,99665.22
2022-11-29T04:32:09.323Z,99663.69
2022-11-29T04:35:15.963Z,99670.31
2022-11-29T04:38:20.793Z,99680.53
2022-11-29T04:41:24.692Z,99679.31
2022-11-29T04:44:39.143Z,99683.63
2022-11-29T04:47:43.238Z,99660.69
2022-11-29T04:50:49.825Z,99692.22
2022-11-29T04:53:50.427Z,99687.13
2022-11-29T04:56:43.806Z,99688.16
2022-11-29T04:59:44.158Z,99691.38
2022-11-29T05:02:37.980Z,99593.31
2022-11-29T05:05:37.253Z,99700.44
2022-11-29T05:08:35.759Z,99697.31
2022-11-29T05:11:33.611Z,99704.47
2022-11-29T05:14:32.394Z,99695.44
2022-11-29T05:17:31.675Z,99700.44
2022-11-29T05:20:30.057Z,99705.09
2022-11-29T05:23:40.899Z,99712.59
2022-11-29T05:26:33.353Z,99714.13
2022-11-29T05:29:31.034Z,99710.22
2022-11-29T05:32:29.514Z,99723.91
2022-11-29T05:35:52.473Z,99719.19
2022-11-29T05:38:56.487Z,99724.22
2022-11-29T05:41:59.395Z,99720.03
2022-11-29T05:44:54.638Z,99723.56
2022-11-29T05:47:51.240Z,99726.66
2022-11-29T05:50:44.197Z,99724.69
2022-11-29T05:53:41.162Z,99723.84
2022-11-29T05:56:41.641Z,99735.19
2022-11-29T05:59:31.214Z,99735.22
2022-11-29T06:02:33.704Z,99739.91
2022-11-29T06:05:30.032Z,99734.44
2022-11-29T06:08:24.600Z,99743.41
2022-11-29T06:11:17.083Z,99741.88
2022-11-29T06:14:13.640Z,99741.88
2022-11-29T06:17:25.466Z,99748.06
2022-11-29T06:20:32.920Z,99745.72
2022-11-29T06:23:38.097Z,99749.22
2022-11-29T06:26:40.365Z,99751.97
2022-11-29T06:29:36.687Z,99697.22
2022-11-29T06:32:36.818Z,99688.28
2022-11-29T06:35:37.349Z,99765.31
2022-11-29T06:38:28.485Z,99766.00
2022-11-29T06:41:20.416Z,99766.75
2022-11-29T06:44:09.201Z,99769.50
2022-11-29T06:47:04.760Z,99772.59
2022-11-29T06:49:58.086Z,99773.38
2022-11-29T06:52:58.302Z,99780.88
2022-11-29T06:55:54.887Z,99789.09
2022-11-29T06:58:51.846Z,99786.34
2022-11-29T07:01:46.571Z,99788.31
2022-11-29T07:04:33.210Z,99784.41
2022-11-29T07:07:01.449Z,99797.31
2022-11-29T07:09:33.190Z,99789.44
2022-11-29T07:12:01.462Z,99796.28
2022-11-29T07:14:29.758Z,99797.88
2022-11-29T07:17:07.617Z,99806.97
2022-11-29T07:19:45.998Z,99803.91
2022-11-29T07:22:32.672Z,99811.03
2022-11-29T07:25:04.784Z,99815.28
2022-11-29T07:27:42.364Z,99821.94
2022-11-29T07:30:15.456Z,99821.59
2022-11-29T07:32:59.895Z,99822.28
2022-11-29T07:35:37.044Z,99831.25
2022-11-29T07:38:12.530Z,99827.22
2022-11-29T07:40:46.799Z,99830.72
2022-11-29T07:43:24.877Z,99834.47
2022-11-29T07:45:53.920Z,99835.53
2022-11-29T07:48:21.638Z,99834.16
2022-11-29T07:50:50.799Z,99834.59
2022-11-29T07:53:20.524Z,99836.63
2022-11-29T07:55:49.503Z,99837.34
2022-11-29T07:58:18.657Z,99844.41
2022-11-29T08:00:47.418Z,99851.28
2022-11-29T08:03:15.158Z,99850.09
2022-11-29T08:05:47.658Z,99833.34
2022-11-29T08:08:17.251Z,99848.16
2022-11-29T08:10:45.051Z,99854.34
2022-11-29T08:13:13.077Z,99856.53
2022-11-29T08:15:45.383Z,99845.06
2022-11-29T08:18:13.267Z,99854.66
2022-11-29T08:20:41.717Z,99854.78
2022-11-29T08:23:12.514Z,99854.00
2022-11-29T08:25:41.700Z,99860.53
2022-11-29T08:28:09.441Z,99868.28
2022-11-29T08:30:37.299Z,99869.34
2022-11-29T08:33:05.882Z,99870.56
2022-11-29T08:35:36.029Z,99871.88
2022-11-29T08:38:04.947Z,99871.06
2022-11-29T08:40:32.723Z,99868.47
2022-11-29T08:43:01.759Z,99879.06
2022-11-29T08:45:29.577Z,99871.63
2022-11-29T08:47:57.306Z,99881.22
2022-11-29T08:50:25.631Z,99885.91
2022-11-29T08:53:11.050Z,99884.59
2022-11-29T08:55:42.491Z,99885.34
2022-11-29T08:58:13.486Z,99892.53
2022-11-29T09:00:43.334Z,99895.72
2022-11-29T09:03:28.644Z,99901.03
2022-11-29T09:05:57.482Z,99904.28
2022-11-29T09:08:25.182Z,99899.88
2022-11-29T09:10:53.273Z,99911.16
2022-11-29T09:13:22.330Z,99909.19
2022-11-29T09:15:50.005Z,99911.06
2022-11-29T09:18:18.028Z,99920.59
2022-11-29T09:20:45.943Z,99919.50
2022-11-29T09:23:13.931Z,99911.41
2022-11-29T09:25:41.680Z,99914.81
2022-11-29T09:28:09.507Z,99928.50
2022-11-29T09:30:38.592Z,99920.84
2022-11-29T09:33:06.403Z,99919.06
2022-11-29T09:35:35.101Z,99925.63
2022-11-29T09:38:02.787Z,99918.69
2022-11-29T09:40:34.866Z,99932.25
2022-11-29T09:43:15.047Z,99930.84
2022-11-29T09:45:48.189Z,99932.44
2022-11-29T09:48:57.445Z,99932.78
2022-11-29T09:51:32.321Z,99928.91
2022-11-29T09:54:16.514Z,99940.38
2022-11-29T09:56:47.342Z,99938.94
2022-11-29T09:59:19.636Z,99935.41
2022-11-29T10:01:54.664Z,99938.94
2022-11-29T10:04:26.810Z,99941.75
2022-11-29T10:06:59.926Z,99941.97
2022-11-29T10:09:34.076Z,99940.31
2022-11-29T10:12:12.664Z,99938.44
2022-11-29T10:14:47.165Z,99936.94
2022-11-29T10:17:25.672Z,99942.75
2022-11-29T10:19:58.446Z,99945.56
2022-11-29T10:22:35.679Z,99945.94
2022-11-29T10:25:04.233Z,99939.84
2022-11-29T10:27:31.902Z,99937.19
2022-11-29T10:30:02.366Z,99941.00
2022-11-29T10:32:33.256Z,99937.91
2022-11-29T10:35:01.596Z,99943.13
2022-11-29T10:37:32.627Z,99941.69
2022-11-29T10:40:04.526Z,99940.22
2022-11-29T10:42:53.051Z,99933.53
2022-11-29T10:45:27.800Z,99936.94
2022-11-29T10:48:01.788Z,99941.00
2022-11-29T10:50:31.863Z,99927.09
2022-11-29T10:53:04.906Z,99933.44
2022-11-29T10:55:39.551Z,99939.78
2022-11-29T10:58:16.975Z,99932.72
2022-11-29T11:00:53.365Z,99927.53
2022-11-29T11:03:30.354Z,99923.75
2022-11-29T11:06:04.562Z,99929.91
2022-11-29T11:08:34.100Z,99930.34
2022-11-29T11:11:04.483Z,99933.91
2022-11-29T11:13:33.496Z,99927.50
2022-11-29T11:16:11.667Z,99932.19
2022-11-29T11:18:40.703Z,99932.84
2022-11-29T11:21:11.644Z,99935.53
2022-11-29T11:23:46.333Z,99935.91
2022-11-29T11:26:15.591Z,99935.53
2022-11-29T11:28:49.281Z,99934.69
2022-11-29T11:31:27.534Z,99930.59
2022-11-29T11:33:56.799Z,99935.66
2022-11-29T11:36:26.009Z,99938.75
2022-11-29T11:38:55.912Z,99940.00
2022-11-29T11:41:48.520Z,99940.81
2022-11-29T11:47:20.950Z,99946.66
2022-11-29T11:49:55.295Z,99943.06
2022-11-29T11:52:25.911Z,99948.59
2022-11-29T11:54:56.267Z,99955.69
2022-11-29T11:57:26.292Z,99959.94
2022-11-29T11:59:57.266Z,99952.09
2022-11-29T12:02:29.808Z,99962.16
2022-11-29T12:05:03.461Z,99959.91
2022-11-29T12:08:06.803Z,99956.06
2022-11-29T12:10:28.534Z,99955.19
2022-11-29T12:12:58.200Z,99957.41
2022-11-29T12:15:30.386Z,99954.19
2022-11-29T12:18:05.170Z,99966.25
2022-11-29T12:20:41.527Z,99964.72
2022-11-29T12:23:28.130Z,99968.16
2022-11-29T12:25:59.893Z,99969.47
2022-11-29T12:28:32.781Z,99959.31
2022-11-29T12:31:09.116Z,99966.00
2022-11-29T12:33:47.444Z,99961.19
2022-11-29T12:36:27.035Z,99964.72
2022-11-29T12:39:38.721Z,99967.22
2022-11-29T12:42:17.475Z,99969.97
2022-11-29T12:44:55.689Z,99974.59
2022-11-29T12:47:36.011Z,99969.53
2022-11-29T12:50:16.337Z,99969.09
2022-11-29T12:52:52.252Z,99975.28
2022-11-29T12:55:25.445Z,99975.63
2022-11-29T12:58:00.907Z,99976.13
2022-11-29T13:00:37.054Z,99971.78
2022-11-29T13:03:16.441Z,99971.31
2022-11-29T13:05:56.628Z,99977.94
2022-11-29T13:08:46.278Z,99976.81
2022-11-29T13:11:21.659Z,99976.81
2022-11-29T13:14:08.245Z,99981.97
2022-11-29T13:16:53.020Z,99981.19
2022-11-29T13:19:25.962Z,99981.13
2022-11-29T13:22:03.367Z,99978.81
2022-11-29T13:24:42.732Z,99943.38
2022-11-29T13:27:15.823Z,99981.88
2022-11-29T13:29:43.993Z,99981.13
2022-11-29T13:32:32.422Z,99984.00
2022-11-29T13:35:05.657Z,99978.25
2022-11-29T13:37:39.917Z,99984.47
2022-11-29T13:40:22.663Z,99988.06
2022-11-29T13:42:59.439Z,99989.84
2022-11-29T13:45:37.366Z,99985.75
2022-11-29T13:48:30.784Z,99984.53
2022-11-29T13:50:59.256Z,99987.63
2022-11-29T13:53:45.227Z,99988.81
2022-11-29T13:56:29.645Z,99990.88
2022-11-29T13:58:58.921Z,99998.44
2022-11-29T14:01:27.042Z,99995.16
2022-11-29T14:04:05.568Z,99997.50
2022-11-29T14:06:34.757Z,99943.41
2022-11-29T14:09:25.767Z,99988.66
2022-11-29T14:12:02.616Z,99995.88
2022-11-29T14:14:35.928Z,99991.66
2022-11-29T14:17:05.583Z,99999.03
2022-11-29T14:19:34.614Z,99997.09
2022-11-29T14:22:21.056Z,100001.34
2022-11-29T14:25:16.334Z,100004.25
2022-11-29T14:28:04.740Z,100006.91
2022-11-29T14:30:48.995Z,100003.06
2022-11-29T14:33:27.888Z,100023.97
2022-11-29T14:36:22.117Z,99932.34
2022-11-29T14:38:57.861Z,100012.56
2022-11-29T14:41:33.987Z,100018.13
2022-11-29T14:44:16.005Z,100028.31
2022-11-29T14:46:44.227Z,100023.69
2022-11-29T14:49:23.574Z,99985.28
2022-11-29T14:52:17.499Z,100035.03
2022-11-29T14:54:58.848Z,100025.94
2022-11-29T14:57:54.907Z,100029.03
2022-11-29T15:00:25.862Z,100030.22
2022-11-29T15:02:56.582Z,100034.09
2022-11-29T15:05:31.921Z,100034.88
2022-11-29T15:08:09.571Z,100037.16
2022-11-29T15:10:41.118Z,100037.59
2022-11-29T15:13:12.902Z,100035.56
2022-11-29T15:16:09.280Z,100041.41
2022-11-29T15:19:16.485Z,100040.59
2022-11-29T15:21:54.095Z,100051.97
2022-11-29T15:24:26.800Z,100057.16
2022-11-29T15:26:57.454Z,100053.22
2022-11-29T15:29:25.918Z,100058.78
2022-11-29T15:31:57.709Z,100055.25
2022-11-29T15:34:32.234Z,100046.16
2022-11-29T15:37:00.364Z,100050.28
2022-11-29T15:39:31.181Z,100057.34
2022-11-29T15:42:03.845Z,100063.34
2022-11-29T15:44:33.053Z,100061.03
2022-11-29T15:47:22.067Z,100060.19
2022-11-29T15:49:49.812Z,100062.56
2022-11-29T15:52:25.492Z,100078.22
2022-11-29T15:54:57.705Z,100064.16
2022-11-29T15:57:28.985Z,100072.38
2022-11-29T16:00:00.014Z,100076.28
2022-11-29T16:02:32.522Z,100076.66
2022-11-29T16:05:03.992Z,100085.22
2022-11-29T16:07:34.079Z,100082.06
2022-11-29T16:10:06.534Z,100085.47
2022-11-29T16:12:34.373Z,100080.19
2022-11-29T16:15:02.400Z,100053.59
2022-11-29T16:17:34.215Z,100078.25
2022-11-29T16:20:23.333Z,100056.09
2022-11-29T16:23:04.901Z,100082.22
2022-11-29T16:25:37.523Z,100081.84
2022-11-29T16:28:06.187Z,100075.56
2022-11-29T16:30:34.217Z,100085.59
2022-11-29T16:33:03.809Z,100081.78
2022-11-29T16:35:33.694Z,100084.81
2022-11-29T16:38:05.008Z,100097.16
2022-11-29T16:40:34.681Z,100096.41
2022-11-29T16:43:23.777Z,100103.50
2022-11-29T16:46:27.755Z,100097.16
2022-11-29T16:48:58.741Z,100093.53
2022-11-29T16:51:27.996Z,100095.94
2022-11-29T16:53:55.826Z,100098.22
2022-11-29T16:56:25.357Z,100103.38
2022-11-29T16:59:26.040Z,100104.84
2022-11-29T17:01:43.617Z,100098.75
2022-11-29T17:04:12.786Z,100101.41
2022-11-29T17:06:51.744Z,100097.59
2022-11-29T17:09:23.882Z,100099.84
2022-11-29T17:11:51.515Z,100092.41
2022-11-29T17:14:19.408Z,100093.69
2022-11-29T17:16:49.120Z,100091.47
2022-11-29T17:19:19.674Z,100098.00
2022-11-29T17:21:47.502Z,100100.31
2022-11-29T17:24:17.663Z,100104.38
2022-11-29T17:26:45.724Z,100100.56
2022-11-29T17:29:15.052Z,100108.13
2022-11-29T17:31:43.988Z,100101.78
2022-11-29T17:34:11.720Z,100104.16
2022-11-29T17:36:41.842Z,100115.47
2022-11-29T17:39:09.667Z,100088.13
2022-11-29T17:41:37.621Z,100117.16
2022-11-29T17:44:05.593Z,100119.81
2022-11-29T17:46:35.289Z,100119.81
2022-11-29T17:49:05.249Z,100125.31
2022-11-29T17:54:22.848Z,100131.56
2022-11-29T17:56:50.531Z,100129.91
2022-11-29T17:59:18.325Z,100121.25
2022-11-29T18:01:46.969Z,100126.19
2022-11-29T18:04:15.010Z,100126.66
2022-11-29T18:06:43.447Z,100136.81
2022-11-29T18:09:12.794Z,100132.31
2022-11-29T18:11:48.098Z,100113.00
2022-11-29T18:14:18.362Z,100107.28
2022-11-29T18:16:46.396Z,100145.97
2022-11-29T18:19:15.956Z,100147.03
2022-11-29T18:21:43.985Z,100146.97
2022-11-29T18:24:12.075Z,100146.97
2022-11-29T18:26:40.749Z,100147.66
2022-11-29T18:29:10.285Z,100151.47
2022-11-29T18:31:40.714Z,100145.53
2022-11-29T18:34:10.310Z,100154.53
2022-11-29T18:36:39.735Z,100156.38
2022-11-29T18:39:09.597Z,100160.00
2022-11-29T18:41:38.131Z,100128.22
2022-11-29T18:44:07.999Z,100166.72
2022-11-29T18:46:38.134Z,100163.91
2022-11-29T18:49:07.470Z,100161.59
2022-11-29T18:51:35.947Z,100162.38
2022-11-29T18:54:04.655Z,100161.16
2022-11-29T18:56:35.328Z,100164.59
2022-11-29T18:59:05.126Z,100166.72
2022-11-29T19:01:35.195Z,100176.16
2022-11-29T19:04:04.363Z,100176.16
2022-11-29T19:06:39.253Z,100164.88
2022-11-29T19:09:09.671Z,100175.31
2022-11-29T19:11:37.372Z,100168.22
2022-11-29T19:14:11.023Z,100172.66
2022-11-29T19:16:40.421Z,100170.09
2022-11-29T19:19:09.711Z,100161.50
2022-11-29T19:21:39.526Z,100168.69
2022-11-29T19:24:13.772Z,100173.34
2022-11-29T19:26:44.090Z,100170.72
2022-11-29T19:29:12.467Z,100174.97
2022-11-29T19:31:40.236Z,100167.72
2022-11-29T19:34:09.250Z,100168.06
2022-11-29T19:36:42.763Z,100175.66
2022-11-29T19:39:12.764Z,100172.03
2022-11-29T19:41:40.846Z,100175.47
2022-11-29T19:44:09.472Z,100170.69
2022-11-29T19:46:39.005Z,100156.63
2022-11-29T19:49:10.204Z,100086.72
2022-11-29T19:51:38.593Z,100144.78
2022-11-29T19:54:09.336Z,100170.75
2022-11-29T19:56:38.148Z,100179.31
2022-11-29T19:59:07.100Z,100179.41
2022-11-29T20:01:40.939Z,100177.41
2022-11-29T20:04:12.848Z,100179.88
2022-11-29T20:06:41.179Z,100182.66
2022-11-29T20:09:09.103Z,100177.91
2022-11-29T20:11:36.863Z,100182.03
2022-11-29T20:14:05.986Z,100181.59
2022-11-29T20:16:34.603Z,100186.59
2022-11-29T20:19:02.598Z,100187.84
2022-11-29T20:21:33.840Z,100194.41
2022-11-29T20:24:05.578Z,100190.94
2022-11-29T20:26:36.502Z,100202.56
2022-11-29T20:29:05.018Z,100196.41
2022-11-29T20:31:34.226Z,100201.06
2022-11-29T20:34:02.796Z,100199.34
2022-11-29T20:36:42.674Z,100201.19
2022-11-29T20:39:21.799Z,100196.09
2022-11-29T20:42:14.076Z,100181.66
2022-11-29T20:44:50.454Z,100208.63
2022-11-29T20:47:19.662Z,100201.56
2022-11-29T20:49:48.336Z,100210.00
2022-11-29T20:52:33.802Z,100204.09
2022-11-29T20:55:01.455Z,100201.84
2022-11-29T20:57:29.250Z,100203.78
2022-11-29T20:59:56.893Z,100199.59
2022-11-29T21:02:24.741Z,100208.03
2022-11-29T21:05:11.377Z,100196.75
2022-11-29T21:08:00.714Z,100201.66
2022-11-29T21:10:48.906Z,100219.16
2022-11-29T21:13:37.985Z,100221.09
2022-11-29T21:16:29.199Z,100221.34
2022-11-29T21:19:21.192Z,100221.22
2022-11-29T21:22:19.742Z,100220.78
2022-11-29T21:25:19.068Z,100213.94
2022-11-29T21:28:12.527Z,100208.69
2022-11-29T21:31:01.071Z,100214.72
2022-11-29T21:33:49.463Z,100217.22
2022-11-29T21:36:38.265Z,100222.56
2022-11-29T21:39:34.069Z,100225.88
2022-11-29T21:42:23.370Z,100223.34
2022-11-29T21:45:15.568Z,100220.94
2022-11-29T21:48:03.688Z,100228.66
2022-11-29T21:50:51.631Z,100226.03
2022-11-29T21:53:40.630Z,100233.63
2022-11-29T21:56:28.540Z,100233.63
2022-11-29T21:59:17.991Z,100236.03
2022-11-29T22:02:06.054Z,100235.44
2022-11-29T22:04:54.115Z,100232.81
2022-11-29T22:07:42.135Z,100232.03
2022-11-29T22:10:30.105Z,100235.41
2022-11-29T22:13:18.896Z,100240.97
2022-11-29T22:16:11.432Z,100237.00
2022-11-29T22:18:59.410Z,100233.56
2022-11-29T22:21:49.615Z,100225.63
2022-11-29T22:24:38.416Z,100236.03
2022-11-29T22:27:26.342Z,100230.44
2022-11-29T22:30:14.525Z,100234.50
2022-11-29T22:33:05.767Z,100237.09
2022-11-29T22:35:56.842Z,100232.41
2022-11-29T22:38:44.847Z,100235.94
2022-11-29T22:41:33.451Z,100236.88
2022-11-29T22:44:21.399Z,100230.53
2022-11-29T22:47:09.384Z,100229.91
2022-11-29T22:49:58.686Z,100231.19
2022-11-29T22:52:46.624Z,100232.47
2022-11-29T22:55:34.585Z,100234.19
2022-11-29T22:58:23.178Z,100243.06
2022-11-29T23:01:13.945Z,100234.88
2022-11-29T23:04:03.968Z,100239.88
2022-11-29T23:06:56.352Z,100236.00
2022-11-29T23:09:44.506Z,100237.88
2022-11-29T23:12:32.453Z,100234.09
2022-11-29T23:15:20.362Z,100233.31
2022-11-29T23:18:08.287Z,100235.50
2022-11-29T23:21:01.423Z,100234.16
2022-11-29T23:23:56.048Z,100227.38
2022-11-29T23:26:46.692Z,100235.81
2022-11-29T23:29:34.677Z,100235.03
2022-11-29T23:32:22.635Z,100237.66
2022-11-29T23:35:10.751Z,100237.38
2022-11-29T23:37:58.683Z,100243.41
2022-11-29T23:40:47.972Z,100237.50
2022-11-29T23:43:37.757Z,100236.00
2022-11-29T23:46:25.756Z,100236.44
2022-11-29T23:49:13.688Z,100234.88
2022-11-29T23:52:02.594Z,100231.69
2022-11-29T23:54:50.790Z,100227.59
2022-11-29T23:57:40.067Z,100231.28
